createdAt,value
2018-01-12T00:00:28.527Z,6.80
2018-01-12T00:02:56.802Z,6.80
2018-01-12T00:05:25.115Z,6.80
2018-01-12T00:07:53.393Z,6.80
2018-01-12T00:10:22.456Z,6.70
2018-01-12T00:12:50.726Z,6.70
2018-01-12T00:15:19.000Z,6.70
2018-01-12T00:17:47.283Z,6.80
2018-01-12T00:20:15.547Z,6.80
2018-01-12T00:22:43.835Z,6.70
2018-01-12T00:25:12.105Z,6.70
2018-01-12T00:27:40.339Z,6.80
2018-01-12T00:30:08.638Z,6.70
2018-01-12T00:32:37.678Z,6.70
2018-01-12T00:35:06.748Z,6.70
2018-01-12T00:37:35.025Z,6.70
2018-01-12T00:40:03.270Z,6.70
2018-01-12T00:42:31.559Z,6.80
2018-01-12T00:44:59.795Z,6.80
2018-01-12T00:47:28.122Z,6.80
2018-01-12T00:49:56.388Z,6.80
2018-01-12T00:52:24.664Z,6.80
2018-01-12T00:54:52.960Z,6.80
2018-01-12T00:57:21.256Z,6.70
2018-01-12T00:59:49.544Z,6.70
2018-01-12T01:02:17.772Z,6.80
2018-01-12T01:04:46.045Z,6.80
2018-01-12T01:07:14.322Z,6.80
2018-01-12T01:09:43.365Z,6.80
2018-01-12T01:12:11.654Z,6.80
2018-01-12T01:14:40.709Z,6.80
2018-01-12T01:17:08.954Z,6.80
2018-01-12T01:19:37.228Z,6.80
2018-01-12T01:22:05.497Z,6.70
2018-01-12T01:24:33.771Z,6.70
2018-01-12T01:27:02.070Z,6.70
2018-01-12T01:29:30.350Z,6.70
2018-01-12T01:31:58.576Z,6.70
2018-01-12T01:34:27.628Z,6.70
2018-01-12T01:36:55.895Z,6.70
2018-01-12T01:39:24.203Z,6.70
2018-01-12T01:41:52.480Z,6.70
2018-01-12T01:44:20.743Z,6.70
2018-01-12T01:46:49.030Z,6.70
2018-01-12T01:49:17.303Z,6.70
2018-01-12T01:51:45.616Z,6.70
2018-01-12T01:54:14.651Z,6.70
2018-01-12T01:56:42.890Z,6.60
2018-01-12T01:59:11.965Z,6.60
2018-01-12T02:01:40.236Z,6.60
2018-01-12T02:04:08.528Z,6.60
2018-01-12T02:06:36.761Z,6.60
2018-01-12T02:09:05.029Z,6.60
2018-01-12T02:11:33.300Z,6.50
2018-01-12T02:14:01.884Z,6.60
2018-01-12T02:16:30.170Z,6.60
2018-01-12T02:18:58.403Z,6.60
2018-01-12T02:21:27.455Z,6.60
2018-01-12T02:23:55.681Z,6.60
2018-01-12T02:26:24.735Z,6.70
2018-01-12T02:28:53.024Z,6.60
2018-01-12T02:31:21.255Z,6.70
2018-01-12T02:33:49.550Z,6.60
2018-01-12T02:36:17.783Z,6.60
2018-01-12T02:38:46.866Z,6.60
2018-01-12T02:41:15.144Z,6.60
2018-01-12T02:43:43.369Z,6.60
2018-01-12T02:46:11.617Z,6.60
2018-01-12T02:48:39.864Z,6.60
2018-01-12T02:51:08.175Z,6.60
2018-01-12T02:53:37.171Z,6.60
2018-01-12T02:56:05.409Z,6.60
2018-01-12T02:58:33.700Z,6.60
2018-01-12T03:01:01.967Z,6.60
2018-01-12T03:03:30.216Z,6.60
2018-01-12T03:05:58.496Z,6.60
2018-01-12T03:08:26.757Z,6.70
2018-01-12T03:10:55.007Z,6.60
2018-01-12T03:13:23.293Z,6.60
2018-01-12T03:15:51.546Z,6.60
2018-01-12T03:18:20.550Z,6.60
2018-01-12T03:20:48.839Z,6.60
2018-01-12T03:23:17.083Z,6.60
2018-01-12T03:25:45.347Z,6.60
2018-01-12T03:28:13.581Z,6.60
2018-01-12T03:30:41.878Z,6.60
2018-01-12T03:33:10.164Z,6.60
2018-01-12T03:35:38.443Z,6.60
2018-01-12T03:38:06.731Z,6.60
2018-01-12T03:40:34.957Z,6.60
2018-01-12T03:43:03.205Z,6.50
2018-01-12T03:45:32.220Z,6.60
2018-01-12T03:48:00.471Z,6.50
2018-01-12T03:50:28.773Z,6.60
2018-01-12T03:52:57.044Z,6.60
2018-01-12T03:55:26.076Z,6.60
2018-01-12T03:57:54.320Z,6.60
2018-01-12T04:00:22.600Z,6.60
2018-01-12T04:02:50.857Z,6.60
2018-01-12T04:05:19.893Z,6.60
2018-01-12T04:07:48.199Z,6.60
2018-01-12T04:10:16.474Z,6.60
2018-01-12T04:12:44.705Z,6.70
2018-01-12T04:15:12.984Z,6.70
2018-01-12T04:17:41.217Z,6.70
2018-01-12T04:20:09.568Z,6.70
2018-01-12T04:22:37.832Z,6.70
2018-01-12T04:25:06.102Z,6.60
2018-01-12T04:27:34.384Z,6.70
2018-01-12T04:30:02.620Z,6.60
2018-01-12T04:32:31.679Z,6.60
2018-01-12T04:34:59.930Z,6.60
2018-01-12T04:37:28.221Z,6.60
2018-01-12T04:39:56.498Z,6.60
2018-01-12T04:42:24.802Z,6.50
2018-01-12T04:44:53.077Z,6.50
2018-01-12T04:47:21.312Z,6.50
2018-01-12T04:49:49.620Z,6.50
2018-01-12T04:52:17.907Z,6.60
2018-01-12T04:54:46.144Z,6.60
2018-01-12T04:57:14.386Z,6.60
2018-01-12T04:59:43.424Z,6.50
2018-01-12T05:02:11.778Z,6.50
2018-01-12T05:04:40.041Z,6.50
2018-01-12T05:07:09.061Z,6.50
2018-01-12T05:09:37.352Z,6.50
2018-01-12T05:12:05.661Z,6.50
2018-01-12T05:14:33.970Z,6.50
2018-01-12T05:17:03.012Z,6.40
2018-01-12T05:19:31.272Z,6.40
2018-01-12T05:21:59.569Z,6.40
2018-01-12T05:24:27.853Z,6.30
2018-01-12T05:26:56.119Z,6.40
2018-01-12T05:29:24.466Z,6.40
2018-01-12T05:31:52.768Z,6.40
2018-01-12T05:34:20.993Z,6.40
2018-01-12T05:36:50.063Z,6.30
2018-01-12T05:39:18.296Z,6.30
2018-01-12T05:41:46.548Z,6.30
2018-01-12T05:44:15.591Z,6.30
2018-01-12T05:46:43.900Z,6.30
2018-01-12T05:49:12.161Z,6.30
2018-01-12T05:51:40.436Z,6.30
2018-01-12T05:54:08.720Z,6.20
2018-01-12T05:56:36.999Z,6.20
2018-01-12T05:59:05.286Z,6.30
2018-01-12T06:01:45.342Z,6.30
2018-01-12T06:04:25.308Z,6.20
2018-01-12T06:06:54.313Z,6.20
2018-01-12T06:09:22.613Z,6.20
2018-01-12T06:11:50.850Z,6.10
2018-01-12T06:14:19.226Z,6.10
2018-01-12T06:16:47.499Z,6.10
2018-01-12T06:19:15.732Z,6.20
2018-01-12T06:21:44.045Z,6.10
2018-01-12T06:24:12.268Z,6.10
2018-01-12T06:26:40.548Z,6.10
2018-01-12T06:29:08.831Z,6.20
2018-01-12T06:31:37.066Z,6.10
2018-01-12T06:34:05.313Z,6.20
2018-01-12T06:36:33.591Z,6.10
2018-01-12T06:39:01.859Z,6.10
2018-01-12T06:41:30.163Z,6.10
2018-01-12T06:43:58.392Z,6.10
2018-01-12T06:46:26.689Z,6.10
2018-01-12T06:48:54.911Z,6.10
2018-01-12T06:51:23.995Z,6.00
2018-01-12T06:53:52.288Z,6.00
2018-01-12T06:56:20.555Z,6.00
2018-01-12T06:58:48.810Z,6.00
2018-01-12T07:01:17.045Z,6.00
2018-01-12T07:03:45.300Z,6.00
2018-01-12T07:06:13.564Z,6.00
2018-01-12T07:08:41.848Z,6.00
2018-01-12T07:11:10.909Z,5.90
2018-01-12T07:13:39.134Z,5.90
2018-01-12T07:16:07.458Z,5.90
2018-01-12T07:18:35.740Z,5.90
2018-01-12T07:21:15.709Z,5.90
2018-01-12T07:23:46.872Z,5.90
2018-01-12T07:26:15.940Z,5.90
2018-01-12T07:28:44.168Z,5.90
2018-01-12T07:31:12.461Z,5.80
2018-01-12T07:33:40.733Z,5.80
2018-01-12T07:36:08.951Z,5.80
2018-01-12T07:38:37.270Z,5.80
2018-01-12T07:41:05.518Z,5.80
2018-01-12T07:43:33.796Z,5.90
2018-01-12T07:46:02.036Z,5.90
2018-01-12T07:48:30.319Z,5.90
2018-01-12T07:50:58.654Z,5.90
2018-01-12T07:53:27.685Z,5.90
2018-01-12T07:55:55.917Z,5.90
2018-01-12T07:58:24.211Z,6.00
2018-01-12T08:00:58.067Z,6.00
2018-01-12T08:03:26.387Z,6.00
2018-01-12T08:05:55.422Z,6.00
2018-01-12T08:08:23.740Z,6.00
2018-01-12T08:10:52.011Z,6.00
2018-01-12T08:13:20.246Z,6.00
2018-01-12T08:15:48.542Z,6.00
2018-01-12T08:18:16.767Z,6.00
2018-01-12T08:20:45.067Z,6.00
2018-01-12T08:23:13.341Z,6.00
2018-01-12T08:25:41.603Z,6.00
2018-01-12T08:28:09.840Z,6.00
2018-01-12T08:30:38.084Z,6.00
2018-01-12T08:33:06.335Z,6.00
2018-01-12T08:35:34.563Z,6.00
2018-01-12T08:38:02.907Z,6.00
2018-01-12T08:40:31.188Z,6.00
2018-01-12T08:42:59.420Z,5.90
2018-01-12T08:45:28.492Z,6.00
2018-01-12T08:47:56.735Z,6.00
2018-01-12T08:50:25.012Z,6.00
2018-01-12T08:52:53.304Z,6.10
2018-01-12T08:55:21.571Z,6.10
2018-01-12T08:57:49.859Z,6.10
2018-01-12T09:00:18.124Z,6.20
2018-01-12T09:02:46.377Z,6.20
2018-01-12T09:05:14.620Z,6.20
2018-01-12T09:07:43.687Z,6.20
2018-01-12T09:10:11.967Z,6.20
2018-01-12T09:12:40.228Z,6.20
2018-01-12T09:15:16.202Z,6.20
2018-01-12T09:17:51.304Z,6.30
2018-01-12T09:20:19.588Z,6.30
2018-01-12T09:22:47.853Z,6.30
2018-01-12T09:25:25.951Z,6.30
2018-01-12T09:27:54.181Z,6.30
2018-01-12T09:30:22.440Z,6.40
2018-01-12T09:32:50.720Z,6.40
2018-01-12T09:35:18.986Z,6.40
2018-01-12T09:37:59.132Z,6.40
2018-01-12T09:43:21.696Z,6.50
2018-01-12T09:45:49.982Z,6.40
2018-01-12T09:48:37.943Z,6.40
2018-01-12T09:51:06.198Z,6.40
2018-01-12T09:53:34.499Z,6.40
2018-01-12T09:56:02.765Z,6.40
2018-01-12T09:58:31.064Z,6.50
2018-01-12T10:01:03.322Z,6.50
2018-01-12T10:03:31.595Z,6.50
2018-01-12T10:05:59.838Z,6.50
2018-01-12T10:08:28.140Z,6.50
2018-01-12T10:10:56.389Z,6.60
2018-01-12T10:13:24.639Z,6.60
2018-01-12T10:15:53.683Z,6.60
2018-01-12T10:18:33.812Z,6.60
2018-01-12T10:21:12.497Z,6.70
2018-01-12T10:23:40.786Z,6.70
2018-01-12T10:26:09.010Z,6.70
2018-01-12T10:28:49.048Z,6.60
2018-01-12T10:31:17.322Z,6.60
2018-01-12T10:34:05.239Z,6.60
2018-01-12T10:36:39.908Z,6.60
2018-01-12T10:39:21.106Z,6.60
2018-01-12T10:42:01.302Z,6.60
2018-01-12T10:44:30.355Z,6.70
2018-01-12T10:47:16.334Z,6.70
2018-01-12T10:49:57.383Z,6.80
2018-01-12T10:55:22.203Z,6.90
2018-01-12T10:57:50.503Z,6.90
2018-01-12T11:00:32.748Z,6.90
2018-01-12T11:03:01.073Z,6.90
2018-01-12T11:05:29.338Z,7.00
2018-01-12T11:07:57.560Z,7.00
2018-01-12T11:10:25.884Z,7.10
2018-01-12T11:12:54.925Z,7.20
2018-01-12T11:15:23.212Z,7.20
2018-01-12T11:17:51.498Z,7.20
2018-01-12T11:20:19.766Z,7.20
2018-01-12T11:22:48.004Z,7.20
2018-01-12T11:25:16.237Z,7.30
2018-01-12T11:27:45.269Z,7.40
2018-01-12T11:30:13.538Z,7.30
2018-01-12T11:32:41.839Z,7.40
2018-01-12T11:35:10.062Z,7.40
2018-01-12T11:37:39.111Z,7.50
2018-01-12T11:40:07.356Z,7.40
2018-01-12T11:42:35.603Z,7.40
2018-01-12T11:45:03.880Z,7.40
2018-01-12T11:47:32.142Z,7.50
2018-01-12T11:50:00.381Z,7.50
2018-01-12T11:52:28.631Z,7.50
2018-01-12T11:54:57.625Z,7.60
2018-01-12T11:57:26.688Z,7.50
2018-01-12T11:59:54.923Z,7.50
2018-01-12T12:02:23.198Z,7.60
2018-01-12T12:04:51.432Z,7.60
2018-01-12T12:07:19.665Z,7.60
2018-01-12T12:09:47.972Z,7.60
2018-01-12T12:12:16.238Z,7.60
2018-01-12T12:14:44.546Z,7.60
2018-01-12T12:17:12.830Z,7.70
2018-01-12T12:19:41.090Z,7.70
2018-01-12T12:22:09.343Z,7.80
2018-01-12T12:24:37.588Z,7.80
2018-01-12T12:27:05.886Z,7.80
2018-01-12T12:29:34.167Z,7.80
2018-01-12T12:32:02.479Z,7.80
2018-01-12T12:34:30.698Z,7.90
2018-01-12T12:36:58.980Z,7.90
2018-01-12T12:39:27.209Z,7.90
2018-01-12T12:41:55.483Z,7.90
2018-01-12T12:44:23.768Z,7.90
2018-01-12T12:46:52.060Z,7.90
2018-01-12T12:49:21.128Z,7.80
2018-01-12T12:51:49.414Z,7.80
2018-01-12T12:54:17.796Z,7.80
2018-01-12T12:56:46.058Z,7.80
2018-01-12T12:59:14.335Z,7.90
2018-01-12T13:01:42.585Z,7.80
2018-01-12T13:04:10.827Z,7.80
2018-01-12T13:06:39.076Z,7.80
2018-01-12T13:09:08.089Z,7.80
2018-01-12T13:11:36.406Z,7.80
2018-01-12T13:14:04.683Z,7.80
2018-01-12T13:16:32.963Z,7.80
2018-01-12T13:19:01.228Z,7.80
2018-01-12T13:21:29.505Z,7.80
2018-01-12T13:23:57.795Z,7.90
2018-01-12T13:26:26.029Z,7.90
2018-01-12T13:28:55.036Z,7.90
2018-01-12T13:31:23.812Z,7.80
2018-01-12T13:33:52.998Z,7.90
2018-01-12T13:36:21.994Z,7.90
2018-01-12T13:38:51.041Z,7.90
2018-01-12T13:41:19.429Z,7.90
2018-01-12T13:43:47.725Z,8.00
2018-01-12T13:46:15.989Z,8.00
2018-01-12T13:48:44.302Z,8.00
2018-01-12T13:51:13.333Z,8.00
2018-01-12T13:53:41.573Z,8.00
2018-01-12T13:56:10.587Z,8.00
2018-01-12T13:58:38.848Z,8.00
2018-01-12T14:01:07.864Z,8.00
2018-01-12T14:03:36.120Z,8.00
2018-01-12T14:06:05.172Z,7.90
2018-01-12T14:08:33.423Z,7.90
2018-01-12T14:11:01.708Z,7.90
2018-01-12T14:13:29.936Z,7.90
2018-01-12T14:15:59.875Z,7.80
2018-01-12T14:18:28.158Z,7.90
2018-01-12T14:20:56.406Z,7.90
2018-01-12T14:23:25.399Z,7.90
2018-01-12T14:25:54.428Z,7.90
2018-01-12T14:28:22.712Z,7.90
2018-01-12T14:30:50.976Z,7.90
2018-01-12T14:33:19.263Z,7.90
2018-01-12T14:35:47.526Z,7.90
2018-01-12T14:38:15.933Z,7.90
2018-01-12T14:40:44.212Z,7.90
2018-01-12T14:43:12.501Z,7.90
2018-01-12T14:45:40.785Z,8.00
2018-01-12T14:48:09.022Z,7.90
2018-01-12T14:50:37.416Z,7.90
2018-01-12T14:53:05.680Z,7.90
2018-01-12T14:55:33.947Z,7.90
2018-01-12T14:58:02.275Z,7.90
2018-01-12T15:00:30.508Z,7.90
2018-01-12T15:02:58.782Z,8.00
2018-01-12T15:05:27.070Z,8.00
2018-01-12T15:07:55.367Z,8.00
2018-01-12T15:10:23.609Z,8.00
2018-01-12T15:12:51.892Z,8.00
2018-01-12T15:15:20.430Z,8.00
2018-01-12T15:17:48.706Z,8.00
2018-01-12T15:20:16.931Z,8.00
2018-01-12T15:22:45.208Z,8.00
2018-01-12T15:25:13.491Z,8.00
2018-01-12T15:27:41.796Z,7.90
2018-01-12T15:30:10.025Z,7.90
2018-01-12T15:32:39.100Z,7.90
2018-01-12T15:35:07.375Z,7.90
2018-01-12T15:37:35.612Z,7.90
2018-01-12T15:40:03.886Z,7.90
2018-01-12T15:42:32.123Z,7.80
2018-01-12T15:45:01.180Z,7.80
2018-01-12T15:47:29.424Z,7.80
2018-01-12T15:49:57.723Z,7.70
2018-01-12T15:52:25.994Z,7.80
2018-01-12T15:54:54.315Z,7.80
2018-01-12T15:57:23.329Z,7.70
2018-01-12T15:59:51.648Z,7.70
2018-01-12T16:02:19.902Z,7.60
2018-01-12T16:04:48.146Z,7.60
2018-01-12T16:07:16.395Z,7.60
2018-01-12T16:09:44.666Z,7.60
2018-01-12T16:12:12.905Z,7.60
2018-01-12T16:14:41.154Z,7.60
2018-01-12T16:17:10.165Z,7.60
2018-01-12T16:19:38.459Z,7.60
2018-01-12T16:22:06.738Z,7.60
2018-01-12T16:24:35.013Z,7.50
2018-01-12T16:27:03.338Z,7.50
2018-01-12T16:29:31.671Z,7.50
2018-01-12T16:32:00.707Z,7.40
2018-01-12T16:34:28.956Z,7.40
2018-01-12T16:36:57.189Z,7.40
2018-01-12T16:39:26.320Z,7.40
2018-01-12T16:41:54.580Z,7.40
2018-01-12T16:44:22.859Z,7.40
2018-01-12T16:46:51.128Z,7.30
2018-01-12T16:49:19.446Z,7.40
2018-01-12T16:51:47.733Z,7.40
2018-01-12T16:54:16.013Z,7.30
2018-01-12T16:56:44.249Z,7.30
2018-01-12T16:59:12.535Z,7.30
2018-01-12T17:01:40.828Z,7.30
2018-01-12T17:04:09.064Z,7.30
2018-01-12T17:06:37.672Z,7.30
2018-01-12T17:09:05.916Z,7.30
2018-01-12T17:11:34.963Z,7.30
2018-01-12T17:14:03.684Z,7.30
2018-01-12T17:16:31.979Z,7.30
2018-01-12T17:19:00.989Z,7.20
2018-01-12T17:21:29.237Z,7.30
2018-01-12T17:23:58.251Z,7.20
2018-01-12T17:26:26.505Z,7.20
2018-01-12T17:28:55.530Z,7.20
2018-01-12T17:31:23.792Z,7.20
2018-01-12T17:33:52.825Z,7.20
2018-01-12T17:36:21.090Z,7.20
2018-01-12T17:38:49.321Z,7.20
2018-01-12T17:41:18.348Z,7.20
2018-01-12T17:43:46.648Z,7.20
2018-01-12T17:46:14.876Z,7.20
2018-01-12T17:48:43.900Z,7.10
2018-01-12T17:51:12.185Z,7.10
2018-01-12T17:53:40.504Z,7.10
2018-01-12T17:56:08.780Z,7.10
2018-01-12T17:58:37.056Z,7.20
2018-01-12T18:01:05.344Z,7.20
2018-01-12T18:03:33.582Z,7.20
2018-01-12T18:06:01.884Z,7.20
2018-01-12T18:08:30.116Z,7.20
2018-01-12T18:10:58.439Z,7.20
2018-01-12T18:13:26.685Z,7.20
2018-01-12T18:15:54.986Z,7.20
2018-01-12T18:18:23.282Z,7.20
2018-01-12T18:20:51.551Z,7.20
2018-01-12T18:23:19.840Z,7.20
2018-01-12T18:25:48.123Z,7.20
2018-01-12T18:28:16.380Z,7.30
2018-01-12T18:30:44.660Z,7.30
2018-01-12T18:33:12.940Z,7.30
2018-01-12T18:35:41.181Z,7.30
2018-01-12T18:38:09.455Z,7.30
2018-01-12T18:40:38.047Z,7.20
2018-01-12T18:43:07.101Z,7.20
2018-01-12T18:45:36.111Z,7.20
2018-01-12T18:48:04.431Z,7.20
2018-01-12T18:50:32.660Z,7.20
2018-01-12T18:53:00.968Z,7.30
2018-01-12T18:55:29.245Z,7.30
2018-01-12T18:57:57.537Z,7.20
2018-01-12T19:00:25.851Z,7.20
2018-01-12T19:02:54.904Z,7.20
2018-01-12T19:05:23.200Z,7.20
2018-01-12T19:07:51.444Z,7.20
2018-01-12T19:10:19.737Z,7.30
2018-01-12T19:12:47.965Z,7.30
2018-01-12T19:15:17.055Z,7.30
2018-01-12T19:17:46.084Z,7.30
2018-01-12T19:20:14.365Z,7.30
2018-01-12T19:22:42.614Z,7.30
2018-01-12T19:25:11.605Z,7.30
2018-01-12T19:27:39.888Z,7.30
2018-01-12T19:30:08.943Z,7.30
2018-01-12T19:32:37.195Z,7.30
2018-01-12T19:35:05.471Z,7.30
2018-01-12T19:37:33.755Z,7.30
2018-01-12T19:40:02.032Z,7.30
2018-01-12T19:42:30.280Z,7.30
2018-01-12T19:44:58.532Z,7.30
2018-01-12T19:47:27.646Z,7.20
2018-01-12T19:49:55.936Z,7.20
2018-01-12T19:52:24.237Z,7.20
2018-01-12T19:54:53.373Z,7.20
2018-01-12T19:57:21.614Z,7.20
2018-01-12T19:59:49.892Z,7.30
2018-01-12T20:02:18.163Z,7.30
2018-01-12T20:04:46.413Z,7.30
2018-01-12T20:07:16.157Z,7.30
2018-01-12T20:09:44.395Z,7.30
2018-01-12T20:12:12.665Z,7.30
2018-01-12T20:14:41.718Z,7.20
2018-01-12T20:17:10.016Z,7.20
2018-01-12T20:19:38.267Z,7.20
2018-01-12T20:22:06.541Z,7.20
2018-01-12T20:24:34.884Z,7.20
2018-01-12T20:27:03.272Z,7.20
2018-01-12T20:29:31.557Z,7.20
2018-01-12T20:31:59.793Z,7.20
2018-01-12T20:34:28.822Z,7.10
2018-01-12T20:36:57.139Z,7.10
2018-01-12T20:39:25.404Z,7.10
2018-01-12T20:41:53.669Z,7.10
2018-01-12T20:44:21.937Z,7.00
2018-01-12T20:46:50.355Z,7.00
2018-01-12T20:49:18.587Z,7.00
2018-01-12T20:51:47.104Z,7.00
2018-01-12T20:54:16.130Z,6.90
2018-01-12T20:56:46.717Z,6.80
2018-01-12T20:59:14.985Z,6.80
2018-01-12T21:01:43.232Z,6.80
2018-01-12T21:04:11.538Z,6.80
2018-01-12T21:06:39.837Z,6.70
2018-01-12T21:09:08.150Z,6.70
2018-01-12T21:11:37.186Z,6.70
2018-01-12T21:14:05.436Z,6.70
2018-01-12T21:16:33.739Z,6.60
2018-01-12T21:19:02.033Z,6.50
2018-01-12T21:21:30.308Z,6.40
2018-01-12T21:23:58.650Z,6.40
2018-01-12T21:26:27.033Z,6.40
2018-01-12T21:28:55.294Z,6.40
2018-01-12T21:31:24.313Z,6.30
2018-01-12T21:33:52.603Z,6.30
2018-01-12T21:36:20.925Z,6.30
2018-01-12T21:38:49.167Z,6.20
2018-01-12T21:41:17.494Z,6.10
2018-01-12T21:43:45.786Z,6.00
2018-01-12T21:46:14.022Z,6.00
2018-01-12T21:48:42.288Z,5.80
2018-01-12T21:51:10.545Z,5.80
2018-01-12T21:53:38.804Z,5.70
2018-01-12T21:56:07.122Z,5.60
2018-01-12T21:58:35.389Z,5.60
2018-01-12T22:01:03.684Z,5.50
2018-01-12T22:03:31.979Z,5.40
2018-01-12T22:06:01.001Z,5.20
2018-01-12T22:08:29.264Z,5.20
2018-01-12T22:10:57.512Z,5.20
2018-01-12T22:13:25.850Z,5.10
2018-01-12T22:15:54.136Z,5.00
2018-01-12T22:18:22.420Z,5.00
2018-01-12T22:20:50.703Z,4.90
2018-01-12T22:23:18.941Z,4.80
2018-01-12T22:25:47.235Z,4.70
2018-01-12T22:28:15.518Z,4.60
2018-01-12T22:30:43.771Z,4.60
2018-01-12T22:33:12.037Z,4.50
2018-01-12T22:35:40.308Z,4.50
2018-01-12T22:38:09.410Z,4.40
2018-01-12T22:40:37.719Z,4.40
2018-01-12T22:43:05.970Z,4.30
2018-01-12T22:45:35.005Z,4.30
2018-01-12T22:48:03.268Z,4.20
2018-01-12T22:50:31.578Z,4.20
2018-01-12T22:52:59.858Z,4.00
2018-01-12T22:55:28.150Z,3.90
2018-01-12T22:57:56.403Z,3.80
2018-01-12T23:00:24.714Z,3.80
2018-01-12T23:02:53.745Z,3.70
2018-01-12T23:05:21.992Z,3.70
2018-01-12T23:07:50.289Z,3.70
2018-01-12T23:10:18.529Z,3.60
2018-01-12T23:12:47.536Z,3.40
2018-01-12T23:15:16.633Z,3.40
2018-01-12T23:17:45.680Z,3.30
2018-01-12T23:20:13.923Z,3.30
2018-01-12T23:22:42.185Z,3.30
2018-01-12T23:25:11.201Z,3.20
2018-01-12T23:27:39.489Z,3.20
2018-01-12T23:30:07.765Z,3.20
2018-01-12T23:32:35.997Z,3.10
2018-01-12T23:35:05.065Z,3.10
2018-01-12T23:37:33.351Z,3.00
2018-01-12T23:40:01.609Z,3.00
2018-01-12T23:42:29.861Z,3.00
2018-01-12T23:44:58.099Z,2.90
2018-01-12T23:47:27.181Z,2.90
2018-01-12T23:49:55.423Z,2.90
2018-01-12T23:52:23.716Z,2.80
2018-01-12T23:54:51.993Z,2.80
2018-01-12T23:57:20.271Z,2.70
2018-01-12T23:59:49.333Z,2.70
